sensor_id;sensor_type;location;lat;lon;timestamp;P1;durP1;ratioP1;P2;durP2;ratioP2
16352;SDS011;8286;51.274;9.542;2023-05-23T00:01:18;10.95;;;8.02;;
16352;SDS011;8286;51.274;9.542;2023-05-23T00:03:45;12.95;;;8.63;;
16352;SDS011;8286;51.274;9.542;2023-05-23T00:06:13;11.93;;;7.97;;
16352;SDS011;8286;51.274;9.542;2023-05-23T00:08:39;10.80;;;8.30;;
16352;SDS011;8286;51.274;9.542;2023-05-23T00:11:06;10.43;;;8.23;;
16352;SDS011;8286;51.274;9.542;2023-05-23T00:13:32;11.77;;;8.27;;
16352;SDS011;8286;51.274;9.542;2023-05-23T00:16:01;14.15;;;9.02;;
16352;SDS011;8286;51.274;9.542;2023-05-23T00:18:27;11.63;;;8.75;;
16352;SDS011;8286;51.274;9.542;2023-05-23T00:20:54;9.80;;;8.25;;
16352;SDS011;8286;51.274;9.542;2023-05-23T00:23:21;12.35;;;8.27;;
16352;SDS011;8286;51.274;9.542;2023-05-23T00:25:49;12.27;;;8.23;;
16352;SDS011;8286;51.274;9.542;2023-05-23T00:28:17;9.20;;;7.28;;
16352;SDS011;8286;51.274;9.542;2023-05-23T00:30:44;13.85;;;8.55;;
16352;SDS011;8286;51.274;9.542;2023-05-23T00:33:11;14.52;;;8.55;;
16352;SDS011;8286;51.274;9.542;2023-05-23T00:35:39;9.98;;;7.30;;
16352;SDS011;8286;51.274;9.542;2023-05-23T00:38:06;8.68;;;6.90;;
16352;SDS011;8286;51.274;9.542;2023-05-23T00:40:32;11.82;;;7.72;;
16352;SDS011;8286;51.274;9.542;2023-05-23T00:42:59;11.35;;;8.50;;
16352;SDS011;8286;51.274;9.542;2023-05-23T00:45:26;10.05;;;7.85;;
16352;SDS011;8286;51.274;9.542;2023-05-23T00:47:53;11.93;;;8.15;;
16352;SDS011;8286;51.274;9.542;2023-05-23T00:50:20;12.68;;;7.68;;
16352;SDS011;8286;51.274;9.542;2023-05-23T00:52:47;11.65;;;8.05;;
16352;SDS011;8286;51.274;9.542;2023-05-23T00:55:14;11.65;;;7.90;;
16352;SDS011;8286;51.274;9.542;2023-05-23T00:57:41;11.90;;;8.43;;
16352;SDS011;8286;51.274;9.542;2023-05-23T01:00:08;13.13;;;8.70;;
16352;SDS011;8286;51.274;9.542;2023-05-23T01:02:37;10.57;;;8.20;;
16352;SDS011;8286;51.274;9.542;2023-05-23T01:05:07;11.60;;;8.40;;
16352;SDS011;8286;51.274;9.542;2023-05-23T01:07:36;14.05;;;8.07;;
16352;SDS011;8286;51.274;9.542;2023-05-23T01:10:03;13.10;;;8.18;;
16352;SDS011;8286;51.274;9.542;2023-05-23T01:12:32;12.27;;;8.45;;
16352;SDS011;8286;51.274;9.542;2023-05-23T01:15:03;12.05;;;8.32;;
16352;SDS011;8286;51.274;9.542;2023-05-23T01:17:33;15.30;;;8.98;;
16352;SDS011;8286;51.274;9.542;2023-05-23T01:20:07;15.60;;;10.25;;
16352;SDS011;8286;51.274;9.542;2023-05-23T01:28:31;19.70;;;11.23;;
16352;SDS011;8286;51.274;9.542;2023-05-23T01:31:01;14.65;;;11.40;;
16352;SDS011;8286;51.274;9.542;2023-05-23T01:33:29;19.75;;;12.45;;
16352;SDS011;8286;51.274;9.542;2023-05-23T01:35:57;16.17;;;11.82;;
16352;SDS011;8286;51.274;9.542;2023-05-23T01:38:27;16.52;;;11.07;;
16352;SDS011;8286;51.274;9.542;2023-05-23T01:40:53;17.73;;;11.68;;
16352;SDS011;8286;51.274;9.542;2023-05-23T01:43:20;18.70;;;12.50;;
16352;SDS011;8286;51.274;9.542;2023-05-23T01:45:47;16.95;;;11.80;;
16352;SDS011;8286;51.274;9.542;2023-05-23T01:48:14;16.05;;;11.48;;
16352;SDS011;8286;51.274;9.542;2023-05-23T01:50:42;15.25;;;10.82;;
16352;SDS011;8286;51.274;9.542;2023-05-23T01:53:10;19.55;;;11.40;;
16352;SDS011;8286;51.274;9.542;2023-05-23T01:55:37;18.27;;;11.13;;
16352;SDS011;8286;51.274;9.542;2023-05-23T01:58:05;17.05;;;11.40;;
16352;SDS011;8286;51.274;9.542;2023-05-23T02:00:32;15.55;;;10.95;;
16352;SDS011;8286;51.274;9.542;2023-05-23T02:02:59;15.25;;;11.23;;
16352;SDS011;8286;51.274;9.542;2023-05-23T02:05:26;17.65;;;11.68;;
16352;SDS011;8286;51.274;9.542;2023-05-23T02:07:52;17.48;;;11.77;;
16352;SDS011;8286;51.274;9.542;2023-05-23T02:10:19;15.73;;;11.55;;
16352;SDS011;8286;51.274;9.542;2023-05-23T02:12:46;15.90;;;11.50;;
16352;SDS011;8286;51.274;9.542;2023-05-23T02:15:12;16.27;;;11.13;;
16352;SDS011;8286;51.274;9.542;2023-05-23T02:17:39;16.95;;;10.48;;
16352;SDS011;8286;51.274;9.542;2023-05-23T02:20:08;15.52;;;11.57;;
16352;SDS011;8286;51.274;9.542;2023-05-23T02:22:35;13.93;;;11.20;;
16352;SDS011;8286;51.274;9.542;2023-05-23T02:25:02;13.98;;;10.32;;
16352;SDS011;8286;51.274;9.542;2023-05-23T02:27:29;15.50;;;10.82;;
16352;SDS011;8286;51.274;9.542;2023-05-23T02:29:56;19.02;;;11.18;;
16352;SDS011;8286;51.274;9.542;2023-05-23T02:32:22;13.75;;;9.63;;
16352;SDS011;8286;51.274;9.542;2023-05-23T02:34:48;13.35;;;9.35;;
16352;SDS011;8286;51.274;9.542;2023-05-23T02:37:17;10.48;;;7.47;;
16352;SDS011;8286;51.274;9.542;2023-05-23T02:39:43;11.82;;;7.72;;
16352;SDS011;8286;51.274;9.542;2023-05-23T02:42:10;10.00;;;8.20;;
16352;SDS011;8286;51.274;9.542;2023-05-23T02:44:36;10.85;;;7.95;;
16352;SDS011;8286;51.274;9.542;2023-05-23T02:47:03;10.32;;;7.75;;
16352;SDS011;8286;51.274;9.542;2023-05-23T02:49:29;10.88;;;7.28;;
16352;SDS011;8286;51.274;9.542;2023-05-23T02:51:56;12.25;;;7.80;;
16352;SDS011;8286;51.274;9.542;2023-05-23T02:54:24;11.18;;;7.53;;
16352;SDS011;8286;51.274;9.542;2023-05-23T02:56:50;11.02;;;7.40;;
16352;SDS011;8286;51.274;9.542;2023-05-23T02:59:18;10.40;;;7.15;;
16352;SDS011;8286;51.274;9.542;2023-05-23T03:01:46;9.77;;;7.70;;
16352;SDS011;8286;51.274;9.542;2023-05-23T03:04:12;8.57;;;7.07;;
16352;SDS011;8286;51.274;9.542;2023-05-23T03:06:39;9.10;;;6.70;;
16352;SDS011;8286;51.274;9.542;2023-05-23T03:09:06;11.98;;;8.07;;
16352;SDS011;8286;51.274;9.542;2023-05-23T03:11:35;12.95;;;7.93;;
16352;SDS011;8286;51.274;9.542;2023-05-23T03:14:01;8.25;;;7.05;;
16352;SDS011;8286;51.274;9.542;2023-05-23T03:16:28;11.48;;;7.70;;
16352;SDS011;8286;51.274;9.542;2023-05-23T03:18:54;9.27;;;7.70;;
16352;SDS011;8286;51.274;9.542;2023-05-23T03:21:21;10.50;;;7.93;;
16352;SDS011;8286;51.274;9.542;2023-05-23T03:23:47;11.60;;;8.05;;
16352;SDS011;8286;51.274;9.542;2023-05-23T03:26:14;11.25;;;7.80;;
16352;SDS011;8286;51.274;9.542;2023-05-23T03:28:42;9.15;;;7.13;;
16352;SDS011;8286;51.274;9.542;2023-05-23T03:31:08;10.07;;;6.82;;
16352;SDS011;8286;51.274;9.542;2023-05-23T03:33:35;8.00;;;6.50;;
16352;SDS011;8286;51.274;9.542;2023-05-23T03:36:01;9.55;;;5.93;;
16352;SDS011;8286;51.274;9.542;2023-05-23T03:38:28;7.55;;;5.20;;
16352;SDS011;8286;51.274;9.542;2023-05-23T03:40:55;6.93;;;4.65;;
16352;SDS011;8286;51.274;9.542;2023-05-23T03:43:21;8.05;;;5.47;;
16352;SDS011;8286;51.274;9.542;2023-05-23T03:45:49;6.55;;;5.05;;
16352;SDS011;8286;51.274;9.542;2023-05-23T03:48:16;8.35;;;5.72;;
16352;SDS011;8286;51.274;9.542;2023-05-23T03:50:42;7.60;;;5.40;;
16352;SDS011;8286;51.274;9.542;2023-05-23T03:53:09;7.13;;;5.87;;
16352;SDS011;8286;51.274;9.542;2023-05-23T03:55:35;7.90;;;5.68;;
16352;SDS011;8286;51.274;9.542;2023-05-23T03:58:02;8.70;;;6.43;;
16352;SDS011;8286;51.274;9.542;2023-05-23T04:00:28;9.33;;;5.63;;
16352;SDS011;8286;51.274;9.542;2023-05-23T04:02:56;8.50;;;5.63;;
16352;SDS011;8286;51.274;9.542;2023-05-23T04:05:22;8.98;;;5.78;;
16352;SDS011;8286;51.274;9.542;2023-05-23T04:07:49;7.38;;;5.45;;
16352;SDS011;8286;51.274;9.542;2023-05-23T04:10:16;7.25;;;5.68;;
16352;SDS011;8286;51.274;9.542;2023-05-23T04:12:43;10.48;;;6.22;;
16352;SDS011;8286;51.274;9.542;2023-05-23T04:15:09;6.75;;;5.05;;
16352;SDS011;8286;51.274;9.542;2023-05-23T04:17:36;9.75;;;5.30;;
16352;SDS011;8286;51.274;9.542;2023-05-23T04:20:05;6.40;;;5.33;;
16352;SDS011;8286;51.274;9.542;2023-05-23T04:22:33;7.80;;;5.40;;
16352;SDS011;8286;51.274;9.542;2023-05-23T04:25:00;6.57;;;5.00;;
16352;SDS011;8286;51.274;9.542;2023-05-23T04:27:26;5.73;;;4.57;;
16352;SDS011;8286;51.274;9.542;2023-05-23T04:29:53;4.43;;;4.03;;
16352;SDS011;8286;51.274;9.542;2023-05-23T04:32:20;5.07;;;3.80;;
16352;SDS011;8286;51.274;9.542;2023-05-23T04:34:47;4.55;;;3.83;;
16352;SDS011;8286;51.274;9.542;2023-05-23T04:37:15;3.57;;;3.27;;
16352;SDS011;8286;51.274;9.542;2023-05-23T04:39:46;4.30;;;3.90;;
16352;SDS011;8286;51.274;9.542;2023-05-23T04:42:12;5.72;;;3.50;;
16352;SDS011;8286;51.274;9.542;2023-05-23T04:44:39;4.07;;;3.07;;
16352;SDS011;8286;51.274;9.542;2023-05-23T04:47:05;4.10;;;3.37;;
16352;SDS011;8286;51.274;9.542;2023-05-23T04:49:32;4.28;;;3.08;;
16352;SDS011;8286;51.274;9.542;2023-05-23T04:52:00;4.15;;;3.42;;
16352;SDS011;8286;51.274;9.542;2023-05-23T04:54:28;4.83;;;3.93;;
16352;SDS011;8286;51.274;9.542;2023-05-23T04:56:55;4.85;;;3.38;;
16352;SDS011;8286;51.274;9.542;2023-05-23T04:59:22;5.07;;;3.53;;
16352;SDS011;8286;51.274;9.542;2023-05-23T05:01:48;4.10;;;3.70;;
16352;SDS011;8286;51.274;9.542;2023-05-23T05:04:15;4.80;;;4.30;;
16352;SDS011;8286;51.274;9.542;2023-05-23T05:06:42;4.73;;;3.90;;
16352;SDS011;8286;51.274;9.542;2023-05-23T05:09:08;4.67;;;3.90;;
16352;SDS011;8286;51.274;9.542;2023-05-23T05:11:36;5.07;;;4.30;;
16352;SDS011;8286;51.274;9.542;2023-05-23T05:14:03;7.10;;;4.10;;
16352;SDS011;8286;51.274;9.542;2023-05-23T05:16:29;4.30;;;3.50;;
16352;SDS011;8286;51.274;9.542;2023-05-23T05:18:56;4.57;;;3.90;;
16352;SDS011;8286;51.274;9.542;2023-05-23T05:21:22;7.30;;;3.77;;
16352;SDS011;8286;51.274;9.542;2023-05-23T05:23:49;3.60;;;3.13;;
16352;SDS011;8286;51.274;9.542;2023-05-23T05:26:16;3.78;;;3.40;;
16352;SDS011;8286;51.274;9.542;2023-05-23T05:28:44;5.00;;;3.60;;
16352;SDS011;8286;51.274;9.542;2023-05-23T05:31:10;3.67;;;3.08;;
16352;SDS011;8286;51.274;9.542;2023-05-23T05:33:39;4.47;;;3.17;;
16352;SDS011;8286;51.274;9.542;2023-05-23T05:36:06;3.73;;;3.30;;
16352;SDS011;8286;51.274;9.542;2023-05-23T05:38:32;3.77;;;3.10;;
16352;SDS011;8286;51.274;9.542;2023-05-23T05:40:59;3.23;;;2.93;;
16352;SDS011;8286;51.274;9.542;2023-05-23T05:43:25;4.27;;;3.20;;
16352;SDS011;8286;51.274;9.542;2023-05-23T05:45:53;3.83;;;3.53;;
16352;SDS011;8286;51.274;9.542;2023-05-23T05:48:20;3.30;;;3.00;;
16352;SDS011;8286;51.274;9.542;2023-05-23T05:50:46;3.10;;;2.80;;
16352;SDS011;8286;51.274;9.542;2023-05-23T05:53:13;4.97;;;2.92;;
16352;SDS011;8286;51.274;9.542;2023-05-23T05:55:40;4.45;;;3.22;;
16352;SDS011;8286;51.274;9.542;2023-05-23T05:58:06;5.20;;;3.22;;
16352;SDS011;8286;51.274;9.542;2023-05-23T06:00:33;6.35;;;3.38;;
16352;SDS011;8286;51.274;9.542;2023-05-23T06:03:07;3.10;;;2.78;;
16352;SDS011;8286;51.274;9.542;2023-05-23T06:05:33;3.53;;;3.22;;
16352;SDS011;8286;51.274;9.542;2023-05-23T06:08:01;5.18;;;3.38;;
16352;SDS011;8286;51.274;9.542;2023-05-23T06:10:28;4.68;;;3.78;;
16352;SDS011;8286;51.274;9.542;2023-05-23T06:12:55;5.30;;;3.50;;
16352;SDS011;8286;51.274;9.542;2023-05-23T06:15:22;4.32;;;3.30;;
16352;SDS011;8286;51.274;9.542;2023-05-23T06:17:49;5.17;;;3.30;;
16352;SDS011;8286;51.274;9.542;2023-05-23T06:20:17;4.47;;;3.43;;
16352;SDS011;8286;51.274;9.542;2023-05-23T06:22:44;5.28;;;3.53;;
16352;SDS011;8286;51.274;9.542;2023-05-23T06:25:10;5.97;;;3.63;;
16352;SDS011;8286;51.274;9.542;2023-05-23T06:27:37;4.97;;;3.77;;
16352;SDS011;8286;51.274;9.542;2023-05-23T06:30:04;5.23;;;3.43;;
16352;SDS011;8286;51.274;9.542;2023-05-23T06:32:31;4.27;;;3.40;;
16352;SDS011;8286;51.274;9.542;2023-05-23T06:34:58;4.47;;;3.95;;
16352;SDS011;8286;51.274;9.542;2023-05-23T06:37:25;4.07;;;3.70;;
16352;SDS011;8286;51.274;9.542;2023-05-23T06:39:52;5.10;;;3.37;;
16352;SDS011;8286;51.274;9.542;2023-05-23T06:42:18;4.17;;;3.37;;
16352;SDS011;8286;51.274;9.542;2023-05-23T06:44:45;4.67;;;3.37;;
16352;SDS011;8286;51.274;9.542;2023-05-23T06:47:11;3.93;;;3.53;;
16352;SDS011;8286;51.274;9.542;2023-05-23T06:49:38;4.80;;;3.13;;
16352;SDS011;8286;51.274;9.542;2023-05-23T06:52:04;4.20;;;3.10;;
16352;SDS011;8286;51.274;9.542;2023-05-23T06:54:32;4.33;;;3.30;;
16352;SDS011;8286;51.274;9.542;2023-05-23T06:56:58;3.38;;;3.08;;
16352;SDS011;8286;51.274;9.542;2023-05-23T06:59:25;7.10;;;3.35;;
16352;SDS011;8286;51.274;9.542;2023-05-23T07:01:51;4.00;;;2.83;;
16352;SDS011;8286;51.274;9.542;2023-05-23T07:04:18;3.65;;;3.20;;
16352;SDS011;8286;51.274;9.542;2023-05-23T07:06:44;3.72;;;3.42;;
16352;SDS011;8286;51.274;9.542;2023-05-23T07:09:11;4.03;;;3.40;;
16352;SDS011;8286;51.274;9.542;2023-05-23T07:11:39;5.90;;;3.80;;
16352;SDS011;8286;51.274;9.542;2023-05-23T07:14:05;4.40;;;3.63;;
16352;SDS011;8286;51.274;9.542;2023-05-23T07:16:32;5.40;;;4.07;;
16352;SDS011;8286;51.274;9.542;2023-05-23T07:18:59;6.80;;;4.32;;
16352;SDS011;8286;51.274;9.542;2023-05-23T07:21:26;5.15;;;4.28;;
16352;SDS011;8286;51.274;9.542;2023-05-23T07:23:53;7.13;;;4.40;;
16352;SDS011;8286;51.274;9.542;2023-05-23T07:26:19;4.55;;;4.07;;
16352;SDS011;8286;51.274;9.542;2023-05-23T07:28:47;4.63;;;4.22;;
16352;SDS011;8286;51.274;9.542;2023-05-23T07:31:14;5.20;;;3.97;;
16352;SDS011;8286;51.274;9.542;2023-05-23T07:33:40;7.32;;;3.75;;
16352;SDS011;8286;51.274;9.542;2023-05-23T07:36:07;5.68;;;3.92;;
16352;SDS011;8286;51.274;9.542;2023-05-23T07:38:34;5.47;;;3.92;;
16352;SDS011;8286;51.274;9.542;2023-05-23T07:41:00;5.05;;;4.25;;
16352;SDS011;8286;51.274;9.542;2023-05-23T07:43:27;4.20;;;3.70;;
16352;SDS011;8286;51.274;9.542;2023-05-23T07:45:54;7.00;;;4.28;;
16352;SDS011;8286;51.274;9.542;2023-05-23T07:48:21;5.55;;;3.95;;
16352;SDS011;8286;51.274;9.542;2023-05-23T07:50:48;4.63;;;4.13;;
16352;SDS011;8286;51.274;9.542;2023-05-23T07:53:18;4.18;;;3.78;;
16352;SDS011;8286;51.274;9.542;2023-05-23T07:55:45;4.57;;;3.88;;
16352;SDS011;8286;51.274;9.542;2023-05-23T07:58:12;6.47;;;4.22;;
16352;SDS011;8286;51.274;9.542;2023-05-23T08:00:38;5.93;;;4.05;;
16352;SDS011;8286;51.274;9.542;2023-05-23T08:03:06;4.30;;;3.90;;
16352;SDS011;8286;51.274;9.542;2023-05-23T08:05:33;4.53;;;3.95;;
16352;SDS011;8286;51.274;9.542;2023-05-23T08:07:59;4.18;;;3.47;;
16352;SDS011;8286;51.274;9.542;2023-05-23T08:10:26;5.50;;;3.45;;
16352;SDS011;8286;51.274;9.542;2023-05-23T08:12:53;4.00;;;3.60;;
16352;SDS011;8286;51.274;9.542;2023-05-23T08:15:20;4.13;;;3.45;;
16352;SDS011;8286;51.274;9.542;2023-05-23T08:17:48;4.07;;;3.65;;
16352;SDS011;8286;51.274;9.542;2023-05-23T08:20:16;4.07;;;3.45;;
16352;SDS011;8286;51.274;9.542;2023-05-23T08:22:42;4.22;;;3.30;;
16352;SDS011;8286;51.274;9.542;2023-05-23T08:25:09;4.30;;;3.47;;
16352;SDS011;8286;51.274;9.542;2023-05-23T08:27:35;3.72;;;3.22;;
16352;SDS011;8286;51.274;9.542;2023-05-23T08:30:02;3.83;;;3.10;;
16352;SDS011;8286;51.274;9.542;2023-05-23T08:32:30;2.78;;;2.55;;
16352;SDS011;8286;51.274;9.542;2023-05-23T08:34:56;3.55;;;3.05;;
16352;SDS011;8286;51.274;9.542;2023-05-23T08:37:24;3.17;;;2.83;;
16352;SDS011;8286;51.274;9.542;2023-05-23T08:39:51;2.90;;;2.70;;
16352;SDS011;8286;51.274;9.542;2023-05-23T08:42:17;2.60;;;2.40;;
16352;SDS011;8286;51.274;9.542;2023-05-23T08:44:44;2.72;;;2.53;;
16352;SDS011;8286;51.274;9.542;2023-05-23T08:47:10;3.63;;;3.00;;
16352;SDS011;8286;51.274;9.542;2023-05-23T08:49:38;3.15;;;2.85;;
16352;SDS011;8286;51.274;9.542;2023-05-23T08:52:05;2.88;;;2.63;;
16352;SDS011;8286;51.274;9.542;2023-05-23T08:54:38;3.10;;;2.72;;
16352;SDS011;8286;51.274;9.542;2023-05-23T08:57:05;3.13;;;2.83;;
16352;SDS011;8286;51.274;9.542;2023-05-23T08:59:31;3.70;;;3.00;;
16352;SDS011;8286;51.274;9.542;2023-05-23T09:01:58;3.65;;;3.17;;
16352;SDS011;8286;51.274;9.542;2023-05-23T09:04:25;3.10;;;2.80;;
16352;SDS011;8286;51.274;9.542;2023-05-23T09:06:53;2.97;;;2.78;;
16352;SDS011;8286;51.274;9.542;2023-05-23T09:09:20;3.17;;;2.90;;
16352;SDS011;8286;51.274;9.542;2023-05-23T09:11:49;6.43;;;2.72;;
16352;SDS011;8286;51.274;9.542;2023-05-23T09:14:16;3.75;;;2.75;;
16352;SDS011;8286;51.274;9.542;2023-05-23T09:16:44;5.05;;;2.53;;
16352;SDS011;8286;51.274;9.542;2023-05-23T09:19:11;3.60;;;2.80;;
16352;SDS011;8286;51.274;9.542;2023-05-23T09:21:41;4.10;;;2.88;;
16352;SDS011;8286;51.274;9.542;2023-05-23T09:24:08;3.05;;;2.83;;
16352;SDS011;8286;51.274;9.542;2023-05-23T09:26:34;3.70;;;3.35;;
16352;SDS011;8286;51.274;9.542;2023-05-23T09:29:04;6.15;;;3.13;;
16352;SDS011;8286;51.274;9.542;2023-05-23T09:31:31;5.50;;;3.72;;
16352;SDS011;8286;51.274;9.542;2023-05-23T09:33:58;4.90;;;3.30;;
16352;SDS011;8286;51.274;9.542;2023-05-23T09:36:26;5.95;;;3.63;;
16352;SDS011;8286;51.274;9.542;2023-05-23T09:38:53;5.53;;;3.60;;
16352;SDS011;8286;51.274;9.542;2023-05-23T09:41:19;5.60;;;3.08;;
16352;SDS011;8286;51.274;9.542;2023-05-23T09:43:49;3.05;;;2.80;;
16352;SDS011;8286;51.274;9.542;2023-05-23T09:46:19;3.95;;;2.97;;
16352;SDS011;8286;51.274;9.542;2023-05-23T09:48:46;4.72;;;2.55;;
16352;SDS011;8286;51.274;9.542;2023-05-23T09:51:12;4.03;;;3.60;;
16352;SDS011;8286;51.274;9.542;2023-05-23T09:53:39;3.15;;;2.85;;
16352;SDS011;8286;51.274;9.542;2023-05-23T09:56:06;4.13;;;3.13;;
16352;SDS011;8286;51.274;9.542;2023-05-23T09:58:35;3.80;;;2.88;;
16352;SDS011;8286;51.274;9.542;2023-05-23T10:01:03;2.90;;;2.60;;
16352;SDS011;8286;51.274;9.542;2023-05-23T10:03:36;4.22;;;2.78;;
16352;SDS011;8286;51.274;9.542;2023-05-23T10:06:11;2.80;;;2.60;;
16352;SDS011;8286;51.274;9.542;2023-05-23T10:08:42;3.30;;;2.30;;
16352;SDS011;8286;51.274;9.542;2023-05-23T10:14:13;2.90;;;2.10;;
16352;SDS011;8286;51.274;9.542;2023-05-23T10:16:43;2.27;;;2.10;;
16352;SDS011;8286;51.274;9.542;2023-05-23T10:19:19;1.93;;;1.83;;
16352;SDS011;8286;51.274;9.542;2023-05-23T10:21:50;2.37;;;2.17;;
16352;SDS011;8286;51.274;9.542;2023-05-23T10:24:20;3.80;;;1.50;;
16352;SDS011;8286;51.274;9.542;2023-05-23T10:26:47;1.83;;;1.73;;
16352;SDS011;8286;51.274;9.542;2023-05-23T10:29:13;1.60;;;1.50;;
16352;SDS011;8286;51.274;9.542;2023-05-23T10:31:40;3.03;;;1.47;;
16352;SDS011;8286;51.274;9.542;2023-05-23T10:34:07;1.63;;;1.50;;
16352;SDS011;8286;51.274;9.542;2023-05-23T10:36:42;1.50;;;1.40;;
16352;SDS011;8286;51.274;9.542;2023-05-23T10:39:15;1.50;;;1.40;;
16352;SDS011;8286;51.274;9.542;2023-05-23T10:41:50;2.25;;;1.80;;
16352;SDS011;8286;51.274;9.542;2023-05-23T10:44:20;1.30;;;1.20;;
16352;SDS011;8286;51.274;9.542;2023-05-23T10:46:51;1.23;;;1.10;;
16352;SDS011;8286;51.274;9.542;2023-05-23T10:49:18;0.90;;;0.90;;
16352;SDS011;8286;51.274;9.542;2023-05-23T10:51:47;1.00;;;1.00;;
16352;SDS011;8286;51.274;9.542;2023-05-23T10:54:14;1.60;;;0.80;;
16352;SDS011;8286;51.274;9.542;2023-05-23T10:56:43;0.80;;;0.80;;
16352;SDS011;8286;51.274;9.542;2023-05-23T10:59:16;0.90;;;0.90;;
16352;SDS011;8286;51.274;9.542;2023-05-23T11:01:45;1.07;;;0.97;;
16352;SDS011;8286;51.274;9.542;2023-05-23T11:04:11;0.80;;;0.80;;
16352;SDS011;8286;51.274;9.542;2023-05-23T11:06:38;1.13;;;0.70;;
16352;SDS011;8286;51.274;9.542;2023-05-23T11:09:10;0.80;;;0.80;;
16352;SDS011;8286;51.274;9.542;2023-05-23T11:11:53;0.90;;;0.90;;
16352;SDS011;8286;51.274;9.542;2023-05-23T11:14:30;0.90;;;0.90;;
16352;SDS011;8286;51.274;9.542;2023-05-23T11:16:58;0.80;;;0.80;;
16352;SDS011;8286;51.274;9.542;2023-05-23T11:19:25;0.93;;;0.90;;
16352;SDS011;8286;51.274;9.542;2023-05-23T11:21:53;0.90;;;0.90;;
16352;SDS011;8286;51.274;9.542;2023-05-23T11:24:22;1.45;;;1.30;;
16352;SDS011;8286;51.274;9.542;2023-05-23T11:26:52;1.93;;;1.20;;
16352;SDS011;8286;51.274;9.542;2023-05-23T11:29:24;2.87;;;1.73;;
16352;SDS011;8286;51.274;9.542;2023-05-23T11:31:50;1.77;;;1.63;;
16352;SDS011;8286;51.274;9.542;2023-05-23T11:34:17;3.10;;;1.90;;
16352;SDS011;8286;51.274;9.542;2023-05-23T11:36:44;3.72;;;2.00;;
16352;SDS011;8286;51.274;9.542;2023-05-23T11:39:11;2.27;;;2.07;;
16352;SDS011;8286;51.274;9.542;2023-05-23T11:41:41;2.70;;;2.10;;
16352;SDS011;8286;51.274;9.542;2023-05-23T11:44:11;2.88;;;2.50;;
16352;SDS011;8286;51.274;9.542;2023-05-23T11:46:38;2.60;;;2.30;;
16352;SDS011;8286;51.274;9.542;2023-05-23T11:49:11;2.47;;;2.28;;
16352;SDS011;8286;51.274;9.542;2023-05-23T11:51:38;3.90;;;2.50;;
16352;SDS011;8286;51.274;9.542;2023-05-23T11:54:04;3.55;;;2.60;;
16352;SDS011;8286;51.274;9.542;2023-05-23T11:56:37;2.63;;;2.43;;
16352;SDS011;8286;51.274;9.542;2023-05-23T11:59:06;3.22;;;2.83;;
16352;SDS011;8286;51.274;9.542;2023-05-23T12:01:35;2.80;;;2.60;;
16352;SDS011;8286;51.274;9.542;2023-05-23T12:04:07;3.40;;;2.90;;
16352;SDS011;8286;51.274;9.542;2023-05-23T12:06:34;3.57;;;3.27;;
16352;SDS011;8286;51.274;9.542;2023-05-23T12:09:04;3.37;;;3.10;;
16352;SDS011;8286;51.274;9.542;2023-05-23T12:11:31;3.87;;;3.23;;
16352;SDS011;8286;51.274;9.542;2023-05-23T12:13:57;4.23;;;3.37;;
16352;SDS011;8286;51.274;9.542;2023-05-23T12:16:28;5.23;;;3.30;;
16352;SDS011;8286;51.274;9.542;2023-05-23T12:18:54;5.47;;;3.43;;
16352;SDS011;8286;51.274;9.542;2023-05-23T12:21:24;3.53;;;3.10;;
16352;SDS011;8286;51.274;9.542;2023-05-23T12:23:50;4.57;;;3.60;;
16352;SDS011;8286;51.274;9.542;2023-05-23T12:26:17;4.53;;;3.63;;
16352;SDS011;8286;51.274;9.542;2023-05-23T12:28:44;5.60;;;3.50;;
16352;SDS011;8286;51.274;9.542;2023-05-23T12:31:11;6.57;;;3.53;;
16352;SDS011;8286;51.274;9.542;2023-05-23T12:33:39;4.83;;;3.80;;
16352;SDS011;8286;51.274;9.542;2023-05-23T12:36:07;4.00;;;3.55;;
16352;SDS011;8286;51.274;9.542;2023-05-23T12:38:35;7.50;;;3.90;;
16352;SDS011;8286;51.274;9.542;2023-05-23T12:41:07;7.87;;;3.67;;
16352;SDS011;8286;51.274;9.542;2023-05-23T12:43:36;5.17;;;3.50;;
16352;SDS011;8286;51.274;9.542;2023-05-23T12:46:03;4.53;;;3.97;;
16352;SDS011;8286;51.274;9.542;2023-05-23T12:48:30;5.57;;;4.03;;
16352;SDS011;8286;51.274;9.542;2023-05-23T12:50:58;6.60;;;4.10;;
16352;SDS011;8286;51.274;9.542;2023-05-23T12:53:27;4.80;;;3.97;;
16352;SDS011;8286;51.274;9.542;2023-05-23T12:55:54;5.90;;;4.07;;
16352;SDS011;8286;51.274;9.542;2023-05-23T12:58:20;4.70;;;3.90;;
16352;SDS011;8286;51.274;9.542;2023-05-23T13:00:47;4.43;;;4.03;;
16352;SDS011;8286;51.274;9.542;2023-05-23T13:03:14;8.83;;;4.97;;
16352;SDS011;8286;51.274;9.542;2023-05-23T13:05:41;8.60;;;4.87;;
16352;SDS011;8286;51.274;9.542;2023-05-23T13:08:09;8.90;;;4.60;;
16352;SDS011;8286;51.274;9.542;2023-05-23T13:10:36;7.23;;;5.03;;
16352;SDS011;8286;51.274;9.542;2023-05-23T13:13:03;7.03;;;5.70;;
16352;SDS011;8286;51.274;9.542;2023-05-23T13:15:29;9.10;;;5.70;;
16352;SDS011;8286;51.274;9.542;2023-05-23T13:17:56;7.43;;;5.10;;
16352;SDS011;8286;51.274;9.542;2023-05-23T13:20:23;9.97;;;5.90;;
16352;SDS011;8286;51.274;9.542;2023-05-23T13:22:53;15.53;;;6.57;;
16352;SDS011;8286;51.274;9.542;2023-05-23T13:25:21;11.20;;;6.20;;
16352;SDS011;8286;51.274;9.542;2023-05-23T13:27:48;12.13;;;5.80;;
16352;SDS011;8286;51.274;9.542;2023-05-23T13:30:15;9.63;;;5.77;;
16352;SDS011;8286;51.274;9.542;2023-05-23T13:32:41;9.50;;;5.47;;
16352;SDS011;8286;51.274;9.542;2023-05-23T13:35:08;5.83;;;5.27;;
16352;SDS011;8286;51.274;9.542;2023-05-23T13:37:35;12.93;;;5.90;;
16352;SDS011;8286;51.274;9.542;2023-05-23T13:40:02;8.33;;;5.10;;
16352;SDS011;8286;51.274;9.542;2023-05-23T13:42:30;10.27;;;5.10;;
16352;SDS011;8286;51.274;9.542;2023-05-23T13:44:57;14.23;;;5.00;;
16352;SDS011;8286;51.274;9.542;2023-05-23T13:47:23;6.00;;;4.70;;
16352;SDS011;8286;51.274;9.542;2023-05-23T13:49:50;9.33;;;5.47;;
16352;SDS011;8286;51.274;9.542;2023-05-23T13:52:16;7.63;;;4.90;;
16352;SDS011;8286;51.274;9.542;2023-05-23T13:54:44;6.47;;;4.67;;
16352;SDS011;8286;51.274;9.542;2023-05-23T13:57:11;8.00;;;4.73;;
16352;SDS011;8286;51.274;9.542;2023-05-23T13:59:38;11.17;;;6.37;;
16352;SDS011;8286;51.274;9.542;2023-05-23T14:02:05;9.10;;;4.80;;
16352;SDS011;8286;51.274;9.542;2023-05-23T14:04:32;7.43;;;5.23;;
16352;SDS011;8286;51.274;9.542;2023-05-23T14:06:59;8.33;;;4.50;;
16352;SDS011;8286;51.274;9.542;2023-05-23T14:09:25;8.57;;;5.10;;
16352;SDS011;8286;51.274;9.542;2023-05-23T14:11:52;10.30;;;5.13;;
16352;SDS011;8286;51.274;9.542;2023-05-23T14:14:18;14.83;;;5.80;;
16352;SDS011;8286;51.274;9.542;2023-05-23T14:16:48;9.83;;;5.13;;
16352;SDS011;8286;51.274;9.542;2023-05-23T14:19:15;8.73;;;4.67;;
16352;SDS011;8286;51.274;9.542;2023-05-23T14:21:42;8.03;;;4.63;;
16352;SDS011;8286;51.274;9.542;2023-05-23T14:24:08;10.37;;;4.70;;
16352;SDS011;8286;51.274;9.542;2023-05-23T14:26:35;10.60;;;4.40;;
16352;SDS011;8286;51.274;9.542;2023-05-23T14:29:01;9.23;;;4.30;;
16352;SDS011;8286;51.274;9.542;2023-05-23T14:31:28;10.97;;;4.20;;
16352;SDS011;8286;51.274;9.542;2023-05-23T14:33:56;9.63;;;4.00;;
16352;SDS011;8286;51.274;9.542;2023-05-23T14:36:23;21.80;;;4.20;;
16352;SDS011;8286;51.274;9.542;2023-05-23T14:38:50;11.32;;;4.40;;
16352;SDS011;8286;51.274;9.542;2023-05-23T14:41:16;6.57;;;3.63;;
16352;SDS011;8286;51.274;9.542;2023-05-23T14:43:43;3.95;;;3.25;;
16352;SDS011;8286;51.274;9.542;2023-05-23T14:46:09;11.65;;;4.00;;
16352;SDS011;8286;51.274;9.542;2023-05-23T14:48:37;7.90;;;3.75;;
16352;SDS011;8286;51.274;9.542;2023-05-23T14:51:05;9.90;;;4.03;;
16352;SDS011;8286;51.274;9.542;2023-05-23T14:53:32;7.82;;;3.47;;
16352;SDS011;8286;51.274;9.542;2023-05-23T14:55:58;9.07;;;3.38;;
16352;SDS011;8286;51.274;9.542;2023-05-23T14:58:25;5.82;;;3.53;;
16352;SDS011;8286;51.274;9.542;2023-05-23T15:00:51;11.25;;;2.90;;
16352;SDS011;8286;51.274;9.542;2023-05-23T15:03:18;8.90;;;4.20;;
16352;SDS011;8286;51.274;9.542;2023-05-23T15:05:44;7.03;;;3.25;;
16352;SDS011;8286;51.274;9.542;2023-05-23T15:08:12;7.05;;;2.58;;